Time;durP1;ratioP1;P1;durP2;ratioP2;P2;SDS_P1;SDS_P2;PMS_P1;PMS_P2;Temp;Humidity;BMP_temperature;BMP_pressure;BME280_temperature;BME280_humidity;BME280_pressure;Samples;Min_cycle;Max_cycle;Signal;HPM_P1;HPM_P2
2022/08/14 00:01:47;;;;;;;19.27;17.48;;;;;;;19.67;74.42;100479.03;4955630;29;20043;-71
2022/08/14 00:04:12;;;;;;;19.08;17.23;;;;;;;19.69;73.97;100478.97;4955850;28;20038;-71
2022/08/14 00:06:38;;;;;;;17.52;16.13;;;;;;;19.70;73.72;100476.25;4955862;28;20054;-71
2022/08/14 00:09:03;;;;;;;18.60;17.08;;;;;;;19.74;73.48;100468.06;4955783;29;20114;-71
2022/08/14 00:11:28;;;;;;;18.45;16.75;;;;;;;19.64;73.89;100460.41;4955547;28;20042;-71
2022/08/14 00:13:54;;;;;;;19.30;17.63;;;;;;;19.62;73.99;100456.94;4955398;28;20133;-71
2022/08/14 00:16:19;;;;;;;19.77;17.90;;;;;;;19.63;74.24;100461.34;4955633;28;20039;-71
2022/08/14 00:18:45;;;;;;;18.83;17.13;;;;;;;19.63;73.81;100461.34;4955522;28;20453;-71
2022/08/14 00:21:10;;;;;;;19.52;17.80;;;;;;;19.62;73.73;100459.63;4955299;28;20486;-71
2022/08/14 00:23:36;;;;;;;19.38;17.77;;;;;;;19.65;73.61;100463.97;4955447;29;20462;-71
2022/08/14 00:26:01;;;;;;;19.42;17.88;;;;;;;19.66;73.62;100455.88;4955511;29;20035;-72
2022/08/14 00:28:27;;;;;;;18.20;16.60;;;;;;;19.70;73.15;100457.50;4955326;28;20082;-71
2022/08/14 00:30:58;;;;;;;17.83;16.27;;;;;;;19.69;73.90;100455.75;4955176;28;20035;-71
2022/08/14 00:33:25;;;;;;;18.05;16.50;;;;;;;19.60;74.33;100450.78;4954856;28;20066;-72
2022/08/14 00:35:51;;;;;;;18.80;17.25;;;;;;;19.56;74.22;100446.50;4955305;28;20520;-70
2022/08/14 00:38:17;;;;;;;19.27;17.40;;;;;;;19.53;74.09;100451.13;4955156;28;20517;-71
2022/08/14 00:40:43;;;;;;;19.60;18.10;;;;;;;19.49;74.07;100450.38;4955200;28;20126;-71
2022/08/14 00:43:10;;;;;;;20.20;18.38;;;;;;;19.47;74.61;100444.25;4954785;28;20042;-71
2022/08/14 00:45:35;;;;;;;18.92;17.23;;;;;;;19.39;75.78;100452.59;4955056;28;20039;-72
2022/08/14 00:48:00;;;;;;;18.40;16.80;;;;;;;19.33;75.59;100446.63;4955023;28;20414;-71
2022/08/14 00:50:29;;;;;;;20.17;18.58;;;;;;;19.22;77.27;100439.94;4955033;29;20110;-71
2022/08/14 00:52:55;;;;;;;20.67;18.77;;;;;;;19.11;76.85;100439.56;4954802;28;20383;-71
2022/08/14 00:55:21;;;;;;;18.20;16.70;;;;;;;19.13;75.91;100445.72;4954621;28;20421;-71
2022/08/14 00:58:29;;;;;;;19.15;17.55;;;;;;;19.07;77.39;100439.75;4954558;28;20046;-71
2022/08/14 01:00:37;;;;;;;19.02;17.23;;;;;;;18.99;76.97;100440.06;4951871;29;20501;-71
2022/08/14 01:03:04;;;;;;;20.02;18.40;;;;;;;18.93;77.22;100441.19;4954831;28;20497;-71
2022/08/14 01:05:30;;;;;;;18.50;16.13;;;;;;;18.84;76.08;100444.28;4954717;28;20031;-71
2022/08/14 01:07:59;;;;;;;18.35;16.55;;;;;;;18.79;76.96;100435.56;4954706;28;20118;-71
2022/08/14 01:13:15;;;;;;;19.48;17.77;;;;;;;18.76;77.13;100441.91;4954100;29;20031;-71
2022/08/14 01:15:43;;;;;;;18.90;17.20;;;;;;;18.74;77.55;100441.06;4954603;28;20043;-71
2022/08/14 01:21:05;;;;;;;18.55;16.70;;;;;;;18.72;77.28;100436.72;4951979;29;20039;-71
2022/08/14 01:23:32;;;;;;;19.38;17.67;;;;;;;18.74;78.35;100442.88;4954233;28;20106;-71
2022/08/14 01:25:57;;;;;;;19.42;17.60;;;;;;;18.66;79.80;100451.22;4954430;28;20047;-71
2022/08/14 01:28:25;;;;;;;17.45;15.98;;;;;;;18.58;79.31;100440.84;4954306;28;20090;-71
2022/08/14 01:30:54;;;;;;;19.08;17.35;;;;;;;18.55;79.43;100438.28;4954303;28;20127;-71
2022/08/14 01:33:21;;;;;;;19.23;17.60;;;;;;;18.58;79.52;100442.63;4953807;28;20027;-71
2022/08/14 01:35:46;;;;;;;18.60;17.00;;;;;;;18.51;79.60;100435.78;4950489;29;20047;-72
2022/08/14 01:38:14;;;;;;;19.08;17.17;;;;;;;18.55;80.15;100437.44;4954037;29;20039;-70
2022/08/14 01:40:39;;;;;;;19.17;17.52;;;;;;;18.61;80.15;100446.03;4954091;28;20502;-71
2022/08/14 01:43:14;;;;;;;20.08;18.27;;;;;;;18.75;79.73;100445.50;4953800;28;20090;-71
2022/08/14 01:45:41;;;;;;;20.27;18.48;;;;;;;18.87;79.62;100443.28;4950289;29;20035;-71
2022/08/14 01:48:08;;;;;;;20.88;18.65;;;;;;;18.95;79.25;100443.81;4953958;28;20062;-70
2022/08/14 01:50:33;;;;;;;21.02;19.02;;;;;;;19.02;79.28;100439.94;4953913;28;20041;-71
2022/08/14 01:52:58;;;;;;;20.50;18.50;;;;;;;19.09;78.61;100444.09;4953675;28;20046;-71
2022/08/14 01:55:29;;;;;;;18.80;17.20;;;;;;;19.17;78.55;100439.28;4953773;28;20043;-71
2022/08/14 01:57:54;;;;;;;19.90;18.08;;;;;;;19.23;78.15;100448.84;4949892;29;20106;-70
2022/08/14 02:00:20;;;;;;;20.00;18.23;;;;;;;19.22;78.12;100444.44;4953730;28;20505;-71
2022/08/14 02:02:46;;;;;;;20.80;18.77;;;;;;;19.19;78.78;100429.38;4953701;28;20051;-70
2022/08/14 02:05:13;;;;;;;20.38;18.67;;;;;;;19.10;79.37;100435.16;4953655;28;20517;-71
2022/08/14 02:07:39;;;;;;;21.00;19.30;;;;;;;18.95;80.89;100428.63;4953686;28;20047;-71
2022/08/14 02:10:07;;;;;;;21.05;19.20;;;;;;;18.91;81.43;100432.38;4953646;28;20043;-70
2022/08/14 02:12:32;;;;;;;20.92;19.08;;;;;;;18.93;80.96;100433.19;4953402;28;20050;-72
2022/08/14 02:14:59;;;;;;;20.70;18.95;;;;;;;19.01;80.79;100436.38;4953369;28;20175;-71
2022/08/14 02:17:26;;;;;;;19.27;17.55;;;;;;;19.12;79.83;100433.25;4953518;28;20046;-70
2022/08/14 02:19:52;;;;;;;20.10;18.38;;;;;;;19.27;79.40;100427.25;4953467;28;20035;-71
2022/08/14 02:22:18;;;;;;;19.60;17.70;;;;;;;19.34;79.20;100416.28;4953083;28;20445;-71
2022/08/14 02:24:44;;;;;;;20.30;18.40;;;;;;;19.43;78.51;100418.53;4953411;28;20045;-71
2022/08/14 02:27:12;;;;;;;22.27;20.38;;;;;;;19.40;79.36;100411.50;4953380;28;20035;-71
2022/08/14 02:29:39;;;;;;;21.13;19.35;;;;;;;19.26;79.16;100409.47;4953291;28;20039;-71
2022/08/14 02:32:05;;;;;;;20.63;18.83;;;;;;;19.27;78.69;100402.28;4953117;28;20043;-71
2022/08/14 02:34:35;;;;;;;19.35;17.70;;;;;;;19.19;79.31;100397.28;4953203;28;20493;-71
2022/08/14 02:37:04;;;;;;;19.08;17.45;;;;;;;19.04;79.95;100404.16;4953165;28;20089;-71
2022/08/14 02:39:30;;;;;;;20.20;18.40;;;;;;;19.11;79.06;100399.44;4952898;28;20109;-71
2022/08/14 02:41:57;;;;;;;18.55;16.85;;;;;;;19.20;78.94;100399.03;4952829;28;20031;-71
2022/08/14 02:44:23;;;;;;;20.00;18.30;;;;;;;19.16;79.20;100401.91;4953084;28;20035;-71
2022/08/14 02:46:51;;;;;;;19.73;18.02;;;;;;;19.11;80.94;100399.44;4949548;29;20039;-71
2022/08/14 02:49:16;;;;;;;20.33;18.55;;;;;;;19.17;81.48;100396.47;4953088;28;20122;-71
2022/08/14 02:51:46;;;;;;;20.23;18.45;;;;;;;19.20;80.08;100401.72;4952933;28;20130;-71
2022/08/14 02:54:11;;;;;;;19.23;17.42;;;;;;;19.20;79.17;100383.00;4953069;28;20046;-70
2022/08/14 02:56:37;;;;;;;18.50;16.88;;;;;;;19.23;78.56;100398.91;4952908;29;20043;-71
2022/08/14 02:59:05;;;;;;;19.02;17.23;;;;;;;19.22;79.34;100397.13;4952239;28;20046;-71
2022/08/14 03:01:32;;;;;;;18.15;16.50;;;;;;;19.23;78.66;100398.91;4953010;28;20039;-71
2022/08/14 03:03:58;;;;;;;18.85;16.95;;;;;;;19.31;78.48;100401.25;4953029;28;20194;-71
2022/08/14 03:06:24;;;;;;;19.55;17.70;;;;;;;19.32;78.66;100397.63;4952978;28;20046;-71
2022/08/14 03:08:51;;;;;;;20.08;18.00;;;;;;;19.39;78.12;100390.19;4951091;28;20043;-71
2022/08/14 03:11:17;;;;;;;19.42;17.58;;;;;;;19.45;77.85;100389.91;4948629;29;20529;-71
2022/08/14 03:13:46;;;;;;;21.02;19.02;;;;;;;19.52;77.82;100396.72;4952723;28;20063;-71
2022/08/14 03:16:14;;;;;;;17.52;15.82;;;;;;;19.51;77.48;100400.31;4952938;29;20383;-71
2022/08/14 03:18:42;;;;;;;18.55;16.83;;;;;;;19.54;77.76;100397.50;4952791;28;20178;-71
2022/08/14 03:21:12;;;;;;;19.95;17.98;;;;;;;19.58;77.12;100408.97;4952631;28;20494;-71
2022/08/14 03:23:38;;;;;;;18.52;16.83;;;;;;;19.56;76.92;100408.16;4952739;29;20046;-71
2022/08/14 03:26:14;;;;;;;17.77;16.08;;;;;;;19.49;77.22;100416.47;4952823;28;20035;-71
2022/08/14 03:28:45;;;;;;;17.50;15.90;;;;;;;19.49;77.15;100404.88;4949123;29;20122;-71
2022/08/14 03:31:11;;;;;;;20.40;18.02;;;;;;;19.48;77.46;100408.50;4952552;28;20474;-70
2022/08/14 03:33:39;;;;;;;19.92;17.70;;;;;;;19.47;77.66;100420.16;4952661;28;20045;-71
2022/08/14 03:36:16;;;;;;;21.42;19.52;;;;;;;19.38;78.06;100415.19;4956147;28;20035;-70
2022/08/14 03:38:43;;;;;;;20.30;18.55;;;;;;;19.29;78.07;100405.78;4953686;29;20046;-71
2022/08/14 03:41:15;;;;;;;20.42;18.63;;;;;;;19.24;78.32;100403.31;4956198;28;20047;-71
2022/08/14 03:43:45;;;;;;;19.05;17.25;;;;;;;19.14;78.72;100396.59;4956131;28;20090;-71
2022/08/14 03:46:12;;;;;;;21.15;19.25;;;;;;;19.19;79.83;100407.97;4956254;28;20041;-71
2022/08/14 03:48:38;;;;;;;22.58;20.33;;;;;;;19.18;79.98;100402.72;4956148;28;20413;-71
2022/08/14 03:51:07;;;;;;;22.10;19.95;;;;;;;19.17;79.80;100401.81;4956052;28;20043;-71
2022/08/14 03:53:36;;;;;;;23.70;21.48;;;;;;;19.27;79.37;100405.84;4955847;28;20043;-71
2022/08/14 03:56:03;;;;;;;19.45;17.73;;;;;;;19.32;79.23;100394.94;4955949;28;20130;-71
2022/08/14 03:58:29;;;;;;;22.13;20.10;;;;;;;19.37;79.04;100394.75;4955900;28;20045;-71
2022/08/14 04:00:54;;;;;;;22.35;20.33;;;;;;;19.35;79.27;100381.41;4955946;28;20114;-71
2022/08/14 04:03:20;;;;;;;23.10;20.95;;;;;;;19.36;79.95;100382.28;4955617;28;20421;-70
2022/08/14 04:05:46;;;;;;;23.30;21.15;;;;;;;19.34;80.46;100373.47;4955900;28;20071;-70
2022/08/14 04:08:11;;;;;;;21.92;19.73;;;;;;;19.27;82.16;100380.88;4955779;29;20046;-71
2022/08/14 04:10:37;;;;;;;23.73;21.52;;;;;;;19.26;82.85;100380.03;4955745;28;20050;-71
2022/08/14 04:13:04;;;;;;;24.35;22.15;;;;;;;19.26;81.66;100377.34;4955438;28;20035;-71
2022/08/14 04:15:31;;;;;;;21.73;19.67;;;;;;;19.32;80.23;100380.69;4955691;28;20437;-70
2022/08/14 04:18:01;;;;;;;24.00;21.88;;;;;;;19.25;82.05;100386.28;4955517;28;20035;-71
2022/08/14 04:20:26;;;;;;;23.15;21.00;;;;;;;19.16;83.25;100381.38;4952140;29;20049;-70
2022/08/14 04:22:52;;;;;;;22.83;20.77;;;;;;;19.11;84.12;100383.38;4955323;28;20114;-71
2022/08/14 04:25:18;;;;;;;25.40;23.25;;;;;;;19.08;84.51;100388.88;4955419;28;20043;-71
2022/08/14 04:27:44;;;;;;;22.65;20.50;;;;;;;19.06;84.73;100385.38;4955467;28;20650;-71
2022/08/14 04:30:09;;;;;;;23.63;20.85;;;;;;;19.10;84.72;100384.31;4955441;28;20039;-71
2022/08/14 04:32:35;;;;;;;23.67;21.50;;;;;;;19.15;85.05;100382.31;4955069;28;20122;-71
2022/08/14 04:35:00;;;;;;;22.92;20.80;;;;;;;19.23;85.13;100384.63;4955332;29;20031;-71
2022/08/14 04:45:39;;;;;;;21.88;19.63;;;;;;;19.46;83.11;100370.22;4954139;28;20074;-71
2022/08/14 04:48:11;;;;;;;22.17;20.10;;;;;;;19.46;83.67;100367.53;4954773;28;20098;-71
2022/08/14 04:50:38;;;;;;;23.70;21.40;;;;;;;19.59;82.70;100365.19;4952244;29;20041;-71
2022/08/14 04:53:03;;;;;;;22.52;20.38;;;;;;;19.67;81.94;100369.25;4954847;28;20050;-71
2022/08/14 04:55:29;;;;;;;22.77;20.67;;;;;;;19.87;80.34;100362.13;4954441;29;20043;-71
2022/08/14 04:57:55;;;;;;;21.92;19.92;;;;;;;19.95;79.50;100362.63;4954759;29;20074;-72
2022/08/14 05:00:21;;;;;;;21.33;19.35;;;;;;;19.99;79.36;100366.91;4954579;28;20067;-71
2022/08/14 05:02:47;;;;;;;23.70;21.27;;;;;;;20.01;79.17;100358.78;4954471;28;20081;-71
2022/08/14 05:05:12;;;;;;;22.48;20.38;;;;;;;20.10;79.18;100358.34;4954693;28;20074;-71
2022/08/14 05:07:38;;;;;;;23.83;21.67;;;;;;;20.22;78.63;100354.19;4954662;28;20071;-70
2022/08/14 05:10:04;;;;;;;23.25;20.98;;;;;;;20.33;78.49;100359.88;4954739;28;20078;-71
2022/08/14 05:12:30;;;;;;;23.52;21.35;;;;;;;20.39;78.56;100348.88;4954341;28;20071;-71
2022/08/14 05:14:55;;;;;;;23.88;21.35;;;;;;;20.48;78.83;100352.91;4954411;28;20042;-71
2022/08/14 05:17:24;;;;;;;22.77;20.48;;;;;;;20.57;78.00;100348.00;4954380;28;20090;-71
2022/08/14 05:19:50;;;;;;;22.92;21.00;;;;;;;20.67;77.41;100352.88;4954460;28;20042;-71
2022/08/14 05:22:15;;;;;;;22.95;20.60;;;;;;;20.78;77.16;100347.84;4954215;28;20037;-71
2022/08/14 05:24:40;;;;;;;25.20;22.65;;;;;;;20.95;76.91;100345.13;4954338;29;20494;-72
2022/08/14 05:27:06;;;;;;;25.23;23.02;;;;;;;21.05;76.44;100344.66;4954368;29;20177;-71
2022/08/14 05:29:31;;;;;;;23.33;21.33;;;;;;;21.17;76.20;100341.34;4954254;28;20071;-71
2022/08/14 05:31:56;;;;;;;26.17;23.73;;;;;;;21.34;75.54;100332.38;4953993;28;20754;-71
2022/08/14 05:34:22;;;;;;;25.10;22.90;;;;;;;21.51;75.67;100334.16;4954185;28;20024;-71
2022/08/14 05:36:48;;;;;;;26.05;23.45;;;;;;;21.67;74.76;100335.09;4954172;28;20039;-71
2022/08/14 05:39:13;;;;;;;22.67;20.45;;;;;;;21.92;74.19;100334.56;4953691;28;20075;-71
2022/08/14 05:41:39;;;;;;;22.83;20.83;;;;;;;22.12;72.80;100340.63;4953856;29;20078;-71
2022/08/14 05:44:04;;;;;;;23.42;21.50;;;;;;;22.26;72.55;100336.22;4954044;28;20098;-71
2022/08/14 05:46:30;;;;;;;21.98;19.70;;;;;;;22.37;72.11;100329.34;4953937;28;20091;-72
2022/08/14 05:48:57;;;;;;;24.75;21.45;;;;;;;22.52;72.13;100333.84;4953960;28;20094;-71
2022/08/14 05:51:23;;;;;;;23.30;21.23;;;;;;;22.64;71.37;100327.75;4953719;28;20098;-71
2022/08/14 05:53:49;;;;;;;23.77;21.48;;;;;;;22.84;71.41;100318.44;4953786;28;20409;-71
2022/08/14 05:56:14;;;;;;;23.63;21.17;;;;;;;23.06;70.20;100318.06;4953907;28;20050;-71
2022/08/14 05:58:40;;;;;;;23.83;21.73;;;;;;;23.27;69.69;100315.88;4953315;28;20038;-72
2022/08/14 06:01:05;;;;;;;22.67;20.30;;;;;;;23.39;69.57;100314.22;4953587;28;20039;-71
2022/08/14 06:03:31;;;;;;;21.23;19.33;;;;;;;23.53;69.20;100319.63;4953622;28;20035;-72
2022/08/14 06:05:56;;;;;;;20.77;18.83;;;;;;;23.76;68.96;100319.97;4953752;28;20525;-71
2022/08/14 06:08:25;;;;;;;21.02;18.95;;;;;;;23.97;67.95;100318.63;4953577;28;20055;-71
2022/08/14 06:10:53;;;;;;;21.30;19.40;;;;;;;24.13;67.88;100309.50;4953581;28;20109;-72
2022/08/14 06:13:18;;;;;;;20.75;18.85;;;;;;;24.26;67.14;100308.59;4949625;29;20486;-72
2022/08/14 06:15:45;;;;;;;22.08;20.10;;;;;;;24.34;67.23;100305.38;4953443;28;20043;-71
2022/08/14 06:18:10;;;;;;;23.17;20.75;;;;;;;24.43;66.79;100302.06;4953416;28;20605;-72
2022/08/14 06:20:37;;;;;;;22.33;20.27;;;;;;;24.43;65.98;100295.81;4953369;28;20038;-71
2022/08/14 06:23:03;;;;;;;21.27;19.40;;;;;;;24.48;65.99;100294.56;4953239;28;20072;-71
2022/08/14 06:25:29;;;;;;;22.13;20.15;;;;;;;24.57;65.50;100298.44;4953297;29;20070;-71
2022/08/14 06:27:55;;;;;;;22.70;20.80;;;;;;;24.69;64.93;100292.22;4953241;28;20040;-72
2022/08/14 06:30:23;;;;;;;22.08;20.17;;;;;;;24.78;64.65;100297.94;4953323;28;20038;-71
2022/08/14 06:32:49;;;;;;;24.08;22.00;;;;;;;24.81;64.38;100301.31;4953070;28;20043;-71
2022/08/14 06:35:17;;;;;;;24.52;22.42;;;;;;;24.90;64.02;100300.66;4952781;28;20093;-72
2022/08/14 06:37:48;;;;;;;23.63;21.27;;;;;;;25.00;63.66;100290.09;4953144;28;20044;-72
2022/08/14 06:40:17;;;;;;;22.08;20.08;;;;;;;25.10;63.49;100280.38;4953236;28;20035;-72
2022/08/14 06:42:43;;;;;;;23.13;20.85;;;;;;;25.13;63.12;100284.69;4952866;28;20050;-71
2022/08/14 06:45:09;;;;;;;22.45;20.55;;;;;;;25.24;62.81;100282.13;4953118;28;20019;-71
2022/08/14 06:47:35;;;;;;;22.38;20.48;;;;;;;25.32;62.04;100278.88;4953100;28;20134;-70
2022/08/14 06:50:09;;;;;;;24.88;22.75;;;;;;;25.33;61.98;100284.16;4952955;28;20035;-72
2022/08/14 06:52:34;;;;;;;24.25;22.25;;;;;;;25.38;61.79;100278.41;4952629;28;20038;-72
2022/08/14 06:55:00;;;;;;;24.20;22.20;;;;;;;25.46;61.17;100283.28;4953006;28;20039;-72
2022/08/14 06:57:34;;;;;;;26.60;23.63;;;;;;;25.47;61.07;100280.47;4952957;28;20034;-71
2022/08/14 07:00:00;;;;;;;25.27;23.23;;;;;;;25.41;60.72;100271.94;4950449;29;20043;-72
2022/08/14 07:07:52;;;;;;;24.15;22.25;;;;;;;25.66;59.59;100269.19;4949401;29;20134;-72
2022/08/14 07:10:21;;;;;;;25.13;23.13;;;;;;;25.72;59.90;100266.00;4954987;28;20538;-72
2022/08/14 07:12:47;;;;;;;25.05;23.02;;;;;;;25.83;59.46;100262.53;4956518;28;20409;-72
2022/08/14 07:15:13;;;;;;;24.83;22.65;;;;;;;25.91;59.09;100265.56;4956734;28;20035;-72
2022/08/14 07:17:45;;;;;;;24.30;22.38;;;;;;;26.02;58.71;100262.94;4956654;28;20039;-72
2022/08/14 07:20:11;;;;;;;24.65;22.65;;;;;;;26.13;58.35;100264.81;4953585;29;20093;-72
2022/08/14 07:22:36;;;;;;;24.75;22.95;;;;;;;26.24;58.06;100266.72;4956485;28;20043;-72
2022/08/14 07:25:02;;;;;;;22.90;21.10;;;;;;;26.36;57.24;100264.94;4956544;29;20042;-72
2022/08/14 07:27:27;;;;;;;21.50;19.73;;;;;;;26.45;56.62;100258.78;4956815;28;20030;-72
2022/08/14 07:29:52;;;;;;;23.60;21.70;;;;;;;26.36;56.27;100256.81;4956573;28;20541;-72
2022/08/14 07:32:18;;;;;;;22.77;21.08;;;;;;;26.40;56.26;100261.00;4956214;29;20560;-72
2022/08/14 07:34:43;;;;;;;22.50;20.90;;;;;;;26.47;54.75;100254.13;4956301;29;20485;-72
2022/08/14 07:37:09;;;;;;;23.73;22.00;;;;;;;26.55;54.60;100251.72;4956408;28;20023;-71
2022/08/14 07:39:34;;;;;;;21.27;19.67;;;;;;;26.59;54.86;100245.09;4956447;28;20039;-72
2022/08/14 07:42:00;;;;;;;22.63;20.95;;;;;;;26.70;54.77;100235.25;4956105;29;20043;-71
2022/08/14 07:44:25;;;;;;;22.52;21.02;;;;;;;26.78;54.28;100236.41;4956503;28;20082;-71
2022/08/14 07:46:50;;;;;;;22.33;20.50;;;;;;;26.87;53.83;100226.69;4956226;29;20060;-71
2022/08/14 07:49:19;;;;;;;20.75;19.15;;;;;;;26.95;53.77;100229.63;4956261;28;20035;-71
2022/08/14 07:51:45;;;;;;;20.55;18.95;;;;;;;27.07;53.61;100222.41;4955924;28;20509;-71
2022/08/14 07:54:11;;;;;;;21.60;20.10;;;;;;;27.15;53.35;100219.06;4955750;28;20156;-71
2022/08/14 07:56:36;;;;;;;20.80;19.00;;;;;;;27.24;52.99;100221.06;4955972;28;20031;-71
2022/08/14 07:59:02;;;;;;;21.13;19.67;;;;;;;27.34;52.62;100216.63;4955870;28;20581;-72
2022/08/14 08:01:29;;;;;;;21.70;20.20;;;;;;;27.34;52.37;100213.06;4955702;28;20039;-72
2022/08/14 08:03:58;;;;;;;20.13;18.52;;;;;;;27.46;52.78;100212.06;4955737;28;20508;-71
2022/08/14 08:06:24;;;;;;;21.70;20.00;;;;;;;27.59;52.27;100211.88;4955910;28;20046;-72
2022/08/14 08:08:52;;;;;;;21.10;19.65;;;;;;;27.67;52.04;100210.28;4955773;28;20031;-72
2022/08/14 08:11:18;;;;;;;19.67;18.35;;;;;;;27.72;51.67;100207.22;4955524;28;20050;-72
2022/08/14 08:13:44;;;;;;;20.63;19.10;;;;;;;27.84;51.42;100206.19;4955584;28;20039;-72
2022/08/14 08:16:09;;;;;;;19.95;18.38;;;;;;;27.92;51.50;100209.13;4955696;28;20122;-72
2022/08/14 08:18:35;;;;;;;19.48;18.08;;;;;;;27.91;50.70;100207.41;4955424;28;20130;-71
2022/08/14 08:21:00;;;;;;;19.50;18.13;;;;;;;27.91;49.83;100211.97;4955244;28;20046;-72
2022/08/14 08:23:28;;;;;;;20.35;18.85;;;;;;;27.78;50.30;100209.41;4955255;28;20082;-72
2022/08/14 08:25:56;;;;;;;20.08;18.17;;;;;;;27.76;50.09;100208.66;4955521;28;20047;-73
2022/08/14 08:28:24;;;;;;;18.60;17.23;;;;;;;27.82;50.19;100207.31;4955458;28;20035;-72
2022/08/14 08:30:55;;;;;;;18.88;17.58;;;;;;;27.89;50.00;100205.81;4955341;28;20039;-73
2022/08/14 08:33:23;;;;;;;20.13;18.33;;;;;;;28.03;49.75;100204.66;4953906;29;20054;-72
2022/08/14 08:35:49;;;;;;;19.83;18.42;;;;;;;28.10;49.74;100189.56;4954856;28;20041;-72
2022/08/14 08:38:21;;;;;;;19.38;17.77;;;;;;;28.14;49.18;100191.06;4955214;28;20035;-72
2022/08/14 08:40:49;;;;;;;19.23;17.77;;;;;;;28.28;49.66;100196.16;4955252;28;20153;-72
2022/08/14 08:43:30;;;;;;;19.10;17.58;;;;;;;28.49;48.14;100189.91;4955054;28;20074;-72
2022/08/14 08:46:01;;;;;;;17.08;15.77;;;;;;;28.53;47.53;100197.66;4953394;29;20093;-72
2022/08/14 08:48:41;;;;;;;19.75;18.35;;;;;;;28.55;47.28;100190.22;4955094;28;20082;-72
2022/08/14 08:51:07;;;;;;;17.37;16.17;;;;;;;28.53;46.92;100184.06;4953321;29;20042;-72
2022/08/14 08:53:34;;;;;;;17.83;16.52;;;;;;;28.63;47.12;100184.97;4954581;28;20770;-71
2022/08/14 08:56:00;;;;;;;19.02;17.52;;;;;;;28.76;46.70;100183.91;4954745;28;20049;-72
2022/08/14 08:58:25;;;;;;;18.85;17.38;;;;;;;28.88;47.04;100179.25;4954830;28;20043;-72
2022/08/14 09:00:53;;;;;;;18.70;17.20;;;;;;;28.94;46.63;100176.00;4954883;28;20070;-72
2022/08/14 09:03:21;;;;;;;18.63;17.33;;;;;;;29.00;46.20;100178.16;4954496;28;20035;-72
2022/08/14 09:06:04;;;;;;;17.38;16.15;;;;;;;29.04;45.21;100169.63;4954841;28;20038;-72
2022/08/14 09:08:31;;;;;;;18.60;17.30;;;;;;;29.13;46.09;100167.94;4952792;29;20613;-72
2022/08/14 09:10:58;;;;;;;18.52;17.10;;;;;;;29.25;45.56;100164.13;4954699;28;20509;-71
2022/08/14 09:13:26;;;;;;;17.52;16.13;;;;;;;29.45;44.83;100166.91;4954249;28;20070;-73
2022/08/14 09:15:54;;;;;;;16.58;15.30;;;;;;;29.65;44.38;100168.66;4954618;28;20122;-72
2022/08/14 09:18:21;;;;;;;15.25;14.15;;;;;;;29.86;44.17;100165.81;4954500;28;20085;-72
2022/08/14 09:20:49;;;;;;;15.50;14.40;;;;;;;29.98;43.06;100158.38;4954532;28;20446;-71
2022/08/14 09:23:15;;;;;;;16.00;14.90;;;;;;;30.11;41.84;100158.09;4953827;28;20046;-72
2022/08/14 09:25:43;;;;;;;15.98;14.90;;;;;;;30.17;41.53;100160.22;4954396;28;20047;-72
2022/08/14 09:28:09;;;;;;;15.38;14.27;;;;;;;30.31;41.73;100156.22;4954391;28;20170;-72
2022/08/14 09:30:41;;;;;;;14.88;13.75;;;;;;;30.44;40.38;100145.03;4954381;28;20043;-72
2022/08/14 09:33:21;;;;;;;16.58;15.27;;;;;;;30.65;40.55;100139.38;4953437;28;20046;-72
2022/08/14 09:35:59;;;;;;;15.95;14.68;;;;;;;30.92;39.34;100136.72;4952444;29;20448;-72
2022/08/14 09:38:46;;;;;;;15.80;14.48;;;;;;;31.06;37.95;100127.19;4950817;29;20046;-72
2022/08/14 09:41:39;;;;;;;15.63;14.52;;;;;;;31.23;39.05;100120.06;4953919;29;20054;-71
2022/08/14 09:44:13;;;;;;;16.23;15.05;;;;;;;31.36;39.33;100112.38;4950803;29;20431;-72
2022/08/14 09:46:39;;;;;;;14.63;13.63;;;;;;;31.49;38.89;100117.47;4954053;28;20486;-73
2022/08/14 09:49:06;;;;;;;19.38;18.13;;;;;;;31.51;37.30;100112.72;4954010;28;20042;-73
2022/08/14 09:51:34;;;;;;;16.20;15.10;;;;;;;31.56;37.85;100113.13;4953663;29;20035;-71
2022/08/14 09:54:10;;;;;;;16.98;15.77;;;;;;;31.68;38.00;100097.41;4953786;28;20035;-72
2022/08/14 09:56:46;;;;;;;17.20;16.02;;;;;;;31.98;37.18;100095.28;4953951;28;20070;-72
2022/08/14 09:59:15;;;;;;;17.48;16.27;;;;;;;32.25;37.05;100086.97;4950722;29;20129;-72
2022/08/14 10:01:40;;;;;;;16.40;15.30;;;;;;;32.47;35.66;100087.44;4953794;28;20426;-72
2022/08/14 10:04:19;;;;;;;16.42;15.30;;;;;;;32.67;34.91;100077.16;4953698;28;20097;-71
2022/08/14 10:06:45;;;;;;;17.80;16.00;;;;;;;32.97;35.74;100075.75;4951099;29;20047;-72
2022/08/14 10:09:10;;;;;;;16.98;15.57;;;;;;;33.18;35.29;100073.44;4953673;28;20118;-72
2022/08/14 10:11:37;;;;;;;17.30;16.20;;;;;;;33.44;34.43;100072.47;4953461;28;20046;-72
2022/08/14 10:14:23;;;;;;;15.93;14.93;;;;;;;33.64;32.01;100072.16;4953429;28;20039;-72
2022/08/14 10:16:53;;;;;;;17.83;16.73;;;;;;;33.57;33.25;100055.59;4952541;29;20054;-72
2022/08/14 10:19:20;;;;;;;18.60;17.50;;;;;;;33.69;33.49;100064.31;4949912;29;20390;-72
2022/08/14 10:22:07;;;;;;;18.23;17.00;;;;;;;33.74;31.58;100059.19;4953173;28;20126;-72
2022/08/14 10:24:38;;;;;;;20.25;18.63;;;;;;;33.89;31.71;100060.22;4950358;29;20053;-72
2022/08/14 10:27:24;;;;;;;19.25;17.85;;;;;;;34.16;31.61;100053.53;4953451;28;20043;-73
2022/08/14 10:30:03;;;;;;;21.85;20.35;;;;;;;34.40;30.02;100046.28;4951101;29;20086;-72
2022/08/14 10:32:28;;;;;;;20.33;19.13;;;;;;;34.56;31.10;100039.88;4949257;29;20094;-72
2022/08/14 10:35:06;;;;;;;19.52;18.33;;;;;;;34.78;30.42;100038.31;4953291;28;20035;-72
2022/08/14 10:37:45;;;;;;;22.98;21.48;;;;;;;34.80;30.22;100030.75;4953214;28;20050;-72
2022/08/14 10:40:14;;;;;;;20.35;19.10;;;;;;;34.58;30.47;100029.66;4951020;29;20035;-73
2022/08/14 10:42:42;;;;;;;20.95;19.65;;;;;;;34.65;30.30;100030.66;4953035;28;20039;-73
2022/08/14 10:45:19;;;;;;;19.92;18.73;;;;;;;34.79;30.33;100023.56;4953003;28;20047;-72
2022/08/14 10:47:46;;;;;;;21.60;20.10;;;;;;;34.59;31.02;100039.59;4953204;28;20110;-72
2022/08/14 10:50:13;;;;;;;22.63;21.33;;;;;;;34.31;31.11;100023.53;4953187;28;20117;-73
2022/08/14 10:52:41;;;;;;;23.27;21.83;;;;;;;34.10;30.64;100015.03;4952808;28;20548;-72
2022/08/14 10:55:07;;;;;;;20.30;18.92;;;;;;;34.03;31.81;100023.06;4953015;28;20049;-72
2022/08/14 10:57:34;;;;;;;20.33;19.13;;;;;;;34.07;31.78;100018.13;4953070;28;20039;-72
2022/08/14 11:00:12;;;;;;;21.23;19.92;;;;;;;34.15;31.76;100021.69;4953078;28;20035;-72
2022/08/14 11:02:38;;;;;;;21.00;18.98;;;;;;;34.29;32.01;100028.34;4949279;29;20127;-71
2022/08/14 11:05:10;;;;;;;21.42;19.75;;;;;;;34.56;31.68;100028.94;4952844;28;20034;-72
2022/08/14 11:07:38;;;;;;;21.17;19.92;;;;;;;34.68;31.23;100019.31;4953045;28;20505;-72
2022/08/14 11:10:07;;;;;;;19.85;18.55;;;;;;;34.83;30.79;100009.31;4953024;28;20067;-73
2022/08/14 11:13:02;;;;;;;22.35;20.95;;;;;;;34.96;30.37;100016.13;4952744;28;20042;-72
2022/08/14 11:15:28;;;;;;;22.45;21.08;;;;;;;35.07;30.27;100001.97;4948235;28;20142;-72
2022/08/14 11:17:55;;;;;;;21.02;19.50;;;;;;;35.18;30.30;100011.72;4952810;28;20130;-72
2022/08/14 11:20:23;;;;;;;23.80;22.30;;;;;;;35.29;29.89;100006.66;4952914;28;20049;-72
2022/08/14 11:22:54;;;;;;;24.02;21.95;;;;;;;35.39;29.96;99997.31;4949205;29;20409;-72
2022/08/14 11:25:22;;;;;;;23.52;22.23;;;;;;;35.37;29.48;99999.38;4952886;28;20070;-73
2022/08/14 11:27:50;;;;;;;22.60;21.10;;;;;;;35.13;30.12;99993.06;4952844;28;20062;-73
2022/08/14 11:30:19;;;;;;;23.73;22.38;;;;;;;34.81;29.35;99994.94;4952746;28;20031;-73
2022/08/14 11:32:48;;;;;;;21.98;20.58;;;;;;;34.61;29.98;100004.63;4952725;28;20035;-73